Time;durP1;ratioP1;P1;durP2;ratioP2;P2;SDS_P1;SDS_P2;PMS_P1;PMS_P2;Temp;Humidity;BMP_temperature;BMP_pressure;BME280_temperature;BME280_humidity;BME280_pressure;Samples;Min_cycle;Max_cycle;Signal;HPM_P1;HPM_P2
2023/10/09 00:05:45;;;;;;;9.73;3.95;;;10.40;99.90;;;;;;8289097;28;20029;-80
2023/10/09 00:09:46;;;;;;;11.15;3.85;;;10.50;99.90;;;;;;8284184;28;20044;-79
2023/10/09 00:13:57;;;;;;;10.10;4.25;;;10.50;99.90;;;;;;8290386;28;20050;-80
2023/10/09 00:17:58;;;;;;;11.13;3.88;;;10.40;99.90;;;;;;8285174;28;20546;-80
2023/10/09 00:22:10;;;;;;;9.30;4.03;;;10.40;99.90;;;;;;8285652;28;20034;-80
2023/10/09 00:26:12;;;;;;;10.32;4.10;;;10.40;99.90;;;;;;8280799;28;20052;-80
2023/10/09 00:30:20;;;;;;;12.77;4.40;;;10.50;99.90;;;;;;8281591;28;20046;-80
2023/10/09 00:34:22;;;;;;;8.50;4.10;;;10.60;99.90;;;;;;8281241;28;20033;-80
2023/10/09 00:38:23;;;;;;;12.93;4.50;;;10.60;99.90;;;;;;8293242;28;20029;-80
2023/10/09 00:42:36;;;;;;;10.05;4.07;;;10.40;99.90;;;;;;8279067;28;20037;-80
2023/10/09 00:46:42;;;;;;;12.02;4.70;;;10.30;99.90;;;;;;8288117;28;20033;-80
2023/10/09 00:50:52;;;;;;;11.07;4.38;;;10.30;99.90;;;;;;8291014;28;20105;-81
2023/10/09 00:54:53;;;;;;;;;;;10.30;99.90;;;;;;8297523;28;20100;-79
2023/10/09 00:59:08;;;;;;;9.93;3.45;;;10.30;99.90;;;;;;8296574;28;19909;-81
2023/10/09 01:07:25;;;;;;;11.15;4.13;;;10.10;99.90;;;;;;8298796;28;20429;-81
2023/10/09 01:11:38;;;;;;;12.75;3.83;;;10.10;99.90;;;;;;8305175;28;20521;-80
2023/10/09 01:15:43;;;;;;;12.07;4.40;;;10.20;99.90;;;;;;8272913;28;20025;-79
2023/10/09 01:19:44;;;;;;;11.68;4.18;;;10.10;99.90;;;;;;8280359;28;20116;-80
2023/10/09 01:24:04;;;;;;;10.02;4.28;;;10.10;99.90;;;;;;8293811;28;20022;-80
2023/10/09 01:28:04;;;;;;;9.07;4.15;;;10.00;99.90;;;;;;8287045;28;20026;-79
2023/10/09 01:32:06;;;;;;;11.93;4.68;;;10.20;99.90;;;;;;8277810;28;20026;-80
2023/10/09 01:36:09;;;;;;;7.35;4.18;;;10.20;99.90;;;;;;8280379;28;20026;-79
2023/10/09 01:40:25;;;;;;;10.85;5.25;;;10.20;99.90;;;;;;8279711;28;20037;-79
2023/10/09 01:44:30;;;;;;;10.93;4.07;;;10.20;99.90;;;;;;8295949;28;20049;-79
2023/10/09 01:48:35;;;;;;;13.48;4.10;;;10.20;99.90;;;;;;8292093;28;20040;-80
2023/10/09 01:52:37;;;;;;;10.93;4.57;;;10.20;99.90;;;;;;8290161;28;20018;-79
2023/10/09 01:56:40;;;;;;;7.10;4.10;;;10.20;99.90;;;;;;8278128;28;20145;-80
2023/10/09 02:00:48;;;;;;;10.73;4.00;;;10.20;99.90;;;;;;8298647;28;20056;-80
2023/10/09 02:04:49;;;;;;;9.07;3.50;;;10.10;99.90;;;;;;8299210;28;20026;-80
2023/10/09 02:08:50;;;;;;;11.48;4.03;;;10.30;99.90;;;;;;8296903;28;20117;-79
2023/10/09 02:13:11;;;;;;;8.05;3.58;;;10.20;99.90;;;;;;8299872;28;20490;-80
2023/10/09 02:17:17;;;;;;;11.48;3.60;;;10.20;99.90;;;;;;8278495;28;20092;-79
2023/10/09 02:21:28;;;;;;;7.53;3.63;;;10.00;99.90;;;;;;8302440;28;20033;-80
2023/10/09 02:25:34;;;;;;;7.72;3.17;;;9.90;99.90;;;;;;8292800;28;20022;-80
2023/10/09 02:29:38;;;;;;;11.13;4.07;;;10.00;99.90;;;;;;8281226;28;20084;-79
2023/10/09 02:33:39;;;;;;;9.25;3.63;;;10.20;99.90;;;;;;8297785;28;20014;-80
2023/10/09 02:37:39;;;;;;;9.73;3.35;;;10.30;99.90;;;;;;8286478;28;20086;-78
2023/10/09 02:41:49;;;;;;;12.68;3.78;;;10.50;99.90;;;;;;8299180;28;20441;-78
2023/10/09 02:45:53;;;;;;;9.10;2.87;;;10.70;99.90;;;;;;8291312;28;20490;-80
2023/10/09 02:50:00;;;;;;;9.50;2.78;;;10.80;99.90;;;;;;8282948;28;20022;-80
2023/10/09 02:54:34;;;;;;;9.73;3.20;;;10.80;99.90;;;;;;8284474;28;20049;-80
2023/10/09 02:58:36;;;;;;;7.45;2.75;;;11.00;99.90;;;;;;8275650;28;20108;-78
2023/10/09 03:02:39;;;;;;;8.80;2.90;;;11.00;99.90;;;;;;8290783;28;20141;-79
2023/10/09 03:06:50;;;;;;;8.27;3.15;;;10.80;99.90;;;;;;8286372;28;20053;-78
2023/10/09 03:10:51;;;;;;;9.23;3.17;;;10.80;99.90;;;;;;8291567;28;20037;-79
2023/10/09 03:14:53;;;;;;;7.38;2.97;;;10.80;99.90;;;;;;8280170;28;20501;-79
2023/10/09 03:18:54;;;;;;;8.50;3.00;;;10.70;99.90;;;;;;8288598;28;20036;-79
2023/10/09 03:22:55;;;;;;;9.38;3.25;;;10.90;99.90;;;;;;8280793;28;20094;-78
2023/10/09 03:26:56;;;;;;;6.78;2.95;;;10.80;99.90;;;;;;8276117;28;20409;-79
2023/10/09 03:31:02;;;;;;;10.20;3.28;;;10.90;99.90;;;;;;8286406;28;20026;-79
2023/10/09 03:35:06;;;;;;;7.80;3.10;;;10.70;99.90;;;;;;8290535;28;20045;-79
2023/10/09 03:43:31;;;;;;;5.72;2.90;;;10.70;99.90;;;;;;8293510;28;20100;-78
2023/10/09 03:47:32;;;;;;;11.35;3.15;;;10.70;99.90;;;;;;8290560;28;20506;-79
2023/10/09 03:51:32;;;;;;;10.50;3.10;;;10.90;99.90;;;;;;8293730;28;20096;-78
2023/10/09 03:55:35;;;;;;;11.98;3.10;;;10.90;99.90;;;;;;8292682;28;20034;-79
2023/10/09 03:59:37;;;;;;;9.60;3.03;;;10.90;99.90;;;;;;8283712;28;20102;-79
2023/10/09 04:03:38;;;;;;;7.68;3.20;;;11.00;99.90;;;;;;8282106;28;20064;-78
2023/10/09 04:07:39;;;;;;;9.25;2.95;;;10.90;99.90;;;;;;8272814;28;20025;-79
2023/10/09 04:11:44;;;;;;;12.32;3.10;;;11.10;99.90;;;;;;8274697;28;20506;-79
2023/10/09 04:15:45;;;;;;;7.78;3.10;;;11.10;99.90;;;;;;8278005;28;20025;-79
2023/10/09 04:20:31;;;;;;;13.00;3.40;;;11.20;99.90;;;;;;8272009;28;20018;-79
2023/10/09 04:32:18;;;;;;;9.40;3.28;;;11.50;99.90;;;;;;8290862;28;20069;-79
2023/10/09 04:44:39;;;;;;;9.20;2.75;;;11.80;99.90;;;;;;8290110;28;20513;-80
2023/10/09 04:48:45;;;;;;;5.97;2.75;;;12.00;99.90;;;;;;8272769;28;20030;-79
2023/10/09 04:52:51;;;;;;;8.90;2.97;;;12.30;99.90;;;;;;8281328;28;20030;-79
2023/10/09 04:56:52;;;;;;;7.95;2.72;;;12.60;99.90;;;;;;8272197;28;20096;-79
2023/10/09 05:05:16;;;;;;;8.27;3.10;;;13.40;99.90;;;;;;8292790;28;20106;-79
2023/10/09 05:09:20;;;;;;;15.00;3.42;;;13.80;99.90;;;;;;8280079;28;20038;-80
2023/10/09 05:13:42;;;;;;;8.95;2.80;;;14.20;99.90;;;;;;8279509;28;20032;-78
2023/10/09 05:17:51;;;;;;;10.68;3.03;;;14.00;99.90;;;;;;8288755;28;20076;-80
2023/10/09 05:21:53;;;;;;;9.57;2.25;;;14.20;99.90;;;;;;8287122;28;20129;-81
2023/10/09 05:25:53;;;;;;;7.25;2.75;;;14.60;99.90;;;;;;8271264;28;20409;-79
2023/10/09 05:30:12;;;;;;;9.18;3.08;;;14.60;99.90;;;;;;8276310;28;20025;-80
2023/10/09 05:34:19;;;;;;;8.55;2.85;;;14.40;99.90;;;;;;8278076;28;20395;-78
2023/10/09 05:38:23;;;;;;;10.82;3.22;;;14.40;99.90;;;;;;8291099;28;20825;-80
2023/10/09 05:42:29;;;;;;;9.18;2.80;;;14.60;99.90;;;;;;8272369;28;20792;-80
2023/10/09 05:46:35;;;;;;;9.45;2.60;;;14.60;99.90;;;;;;8288924;28;20034;-80
2023/10/09 05:50:37;;;;;;;9.48;2.70;;;14.50;99.90;;;;;;8290502;28;20052;-79
2023/10/09 06:07:24;;;;;;;20.88;10.02;;;14.90;99.90;;;;;;8290736;28;20077;-79
2023/10/09 06:19:44;;;;;;;8.02;3.10;;;15.40;99.90;;;;;;8291900;28;20490;-79
2023/10/09 06:24:09;;;;;;;10.52;2.50;;;15.80;99.90;;;;;;8289748;28;20038;-80
2023/10/09 06:28:09;;;;;;;9.10;2.60;;;15.90;99.90;;;;;;8275698;28;20060;-80
2023/10/09 06:36:31;;;;;;;6.97;2.60;;;16.00;99.90;;;;;;8296231;28;20114;-80
2023/10/09 06:41:34;;;;;;;9.88;2.38;;;15.90;99.90;;;;;;8289210;28;20022;-79
2023/10/09 06:49:29;;;;;;;9.35;2.65;;;16.30;99.90;;;;;;8288290;28;20036;-80
2023/10/09 06:57:53;;;;;;;12.23;3.13;;;16.80;99.90;;;;;;8292102;28;20040;-81
2023/10/09 07:06:23;;;;;;;9.05;2.92;;;17.60;99.90;;;;;;8291627;28;20037;-80
2023/10/09 07:10:32;;;;;;;9.40;2.47;;;17.80;99.90;;;;;;8277306;28;20022;-80
2023/10/09 07:18:49;;;;;;;7.97;2.45;;;17.90;99.90;;;;;;8290837;28;20037;-80
2023/10/09 07:22:52;;;;;;;12.80;2.90;;;18.00;99.90;;;;;;8269878;28;20034;-80
2023/10/09 07:26:54;;;;;;;6.40;2.40;;;18.20;99.90;;;;;;8274171;28;20032;-80
2023/10/09 07:30:57;;;;;;;6.93;2.92;;;18.30;99.90;;;;;;8274216;28;20113;-80
2023/10/09 07:34:58;;;;;;;6.38;2.50;;;18.50;99.90;;;;;;8274481;28;20049;-80
2023/10/09 07:38:59;;;;;;;8.93;3.00;;;18.50;99.90;;;;;;8294717;28;20022;-80
2023/10/09 07:43:05;;;;;;;7.93;2.55;;;18.60;99.90;;;;;;8286126;28;20034;-80
2023/10/09 07:47:22;;;;;;;13.57;2.78;;;18.60;99.90;;;;;;8276916;28;20026;-81
2023/10/09 07:51:30;;;;;;;7.65;2.65;;;18.60;99.90;;;;;;8290031;28;20137;-80
2023/10/09 07:55:39;;;;;;;11.00;2.53;;;18.70;99.90;;;;;;8276934;28;20026;-80
2023/10/09 07:59:41;;;;;;;11.60;3.35;;;18.70;99.90;;;;;;8285126;28;20022;-80
2023/10/09 08:03:57;;;;;;;14.23;3.25;;;18.70;99.90;;;;;;8280203;28;20143;-80
2023/10/09 08:08:03;;;;;;;6.57;2.60;;;19.00;99.90;;;;;;8274275;28;20025;-79
2023/10/09 08:16:36;;;;;;;8.43;2.90;;;19.10;99.90;;;;;;8292023;28;20092;-81
2023/10/09 08:24:57;;;;;;;7.90;2.58;;;19.20;99.90;;;;;;8292300;28;20036;-80
2023/10/09 08:37:25;;;;;;;8.48;2.22;;;19.40;99.90;;;;;;8291844;28;20131;-81
2023/10/09 08:41:30;;;;;;;8.77;2.50;;;19.60;99.90;;;;;;8291594;28;20084;-80
2023/10/09 08:45:30;;;;;;;8.10;2.40;;;19.80;99.90;;;;;;8288616;28;20402;-80
2023/10/09 08:49:34;;;;;;;7.90;2.45;;;20.00;99.90;;;;;;8290373;28;20040;-81
2023/10/09 08:53:35;;;;;;;6.65;2.72;;;20.10;99.90;;;;;;8270580;28;20033;-80
2023/10/09 08:57:40;;;;;;;9.15;2.90;;;20.20;99.90;;;;;;8281205;28;20078;-81
2023/10/09 09:01:40;;;;;;;6.35;2.30;;;20.30;99.90;;;;;;8294772;28;20033;-80
2023/10/09 09:05:41;;;;;;;11.68;2.88;;;20.50;99.90;;;;;;8296011;28;20084;-81
2023/10/09 09:09:57;;;;;;;7.65;2.28;;;20.70;99.90;;;;;;8284703;28;20061;-80
2023/10/09 09:14:04;;;;;;;7.50;2.70;;;20.80;99.90;;;;;;8293997;28;20026;-80
2023/10/09 09:18:06;;;;;;;6.10;2.55;;;20.90;99.90;;;;;;8279726;28;20113;-80
2023/10/09 09:22:12;;;;;;;7.07;2.88;;;20.80;99.90;;;;;;8285237;28;20034;-80
2023/10/09 09:26:18;;;;;;;12.32;3.47;;;20.90;99.90;;;;;;8285328;28;21486;-81
2023/10/09 09:30:31;;;;;;;8.80;2.40;;;20.60;99.90;;;;;;8284052;28;20029;-80
2023/10/09 09:34:48;;;;;;;8.05;2.45;;;20.90;99.90;;;;;;8287382;28;20022;-82
2023/10/09 09:38:50;;;;;;;8.38;2.30;;;21.00;99.90;;;;;;8295874;28;20108;-83
2023/10/09 09:42:51;;;;;;;6.78;2.97;;;21.30;99.90;;;;;;8300439;28;20501;-82
2023/10/09 09:46:55;;;;;;;8.88;2.95;;;21.30;99.90;;;;;;8283967;28;20034;-81
2023/10/09 09:50:55;;;;;;;7.70;2.58;;;21.60;99.90;;;;;;8289085;28;20026;-80
2023/10/09 09:54:57;;;;;;;8.65;2.60;;;21.60;99.90;;;;;;8284357;28;20032;-82
2023/10/09 09:59:06;;;;;;;5.63;2.08;;;21.60;99.90;;;;;;8288796;28;20022;-81
2023/10/09 10:03:19;;;;;;;9.18;2.55;;;21.50;99.90;;;;;;8286408;28;20024;-82
2023/10/09 10:07:23;;;;;;;10.18;2.80;;;21.40;99.90;;;;;;8300273;28;20053;-82
2023/10/09 10:11:45;;;;;;;11.15;3.03;;;21.30;99.90;;;;;;8303496;28;20389;-81
2023/10/09 10:15:58;;;;;;;10.70;3.15;;;21.40;99.90;;;;;;8282748;28;20482;-81
2023/10/09 10:24:28;;;;;;;6.88;2.15;;;21.50;99.90;;;;;;8302936;28;20025;-80
2023/10/09 10:28:38;;;;;;;11.10;3.10;;;21.70;99.90;;;;;;8306971;28;20033;-82
2023/10/09 10:32:57;;;;;;;8.73;2.57;;;21.70;99.90;;;;;;8295752;28;20033;-82
2023/10/09 10:37:00;;;;;;;8.43;2.92;;;21.50;99.90;;;;;;8290944;28;20121;-82
2023/10/09 10:41:16;;;;;;;10.05;2.50;;;21.90;99.90;;;;;;8300421;28;20021;-82
2023/10/09 10:45:43;;;;;;;7.10;2.35;;;21.80;99.90;;;;;;8279373;28;20037;-82
2023/10/09 10:49:50;;;;;;;6.28;2.72;;;22.10;99.90;;;;;;8286091;28;20030;-82
2023/10/09 10:53:57;;;;;;;7.22;2.20;;;22.20;99.90;;;;;;8293768;28;20493;-82
2023/10/09 10:58:02;;;;;;;11.15;2.95;;;22.40;99.90;;;;;;8298118;28;20057;-82
2023/10/09 11:06:13;;;;;;;9.23;2.55;;;22.30;99.90;;;;;;8300803;28;20025;-81
2023/10/09 11:10:26;;;;;;;6.68;2.22;;;22.40;99.90;;;;;;8291900;28;20064;-83
2023/10/09 11:14:30;;;;;;;10.05;2.88;;;22.70;99.90;;;;;;8289662;28;20029;-81
2023/10/09 11:18:46;;;;;;;7.63;2.60;;;22.70;99.90;;;;;;8296069;28;20686;-83
2023/10/09 11:23:14;;;;;;;8.27;2.58;;;22.80;99.90;;;;;;8299615;28;20046;-82
2023/10/09 11:27:18;;;;;;;7.40;3.08;;;22.80;99.90;;;;;;8299176;28;20113;-82
2023/10/09 11:31:19;;;;;;;9.18;2.90;;;22.90;99.90;;;;;;8295197;28;20050;-82
2023/10/09 11:35:27;;;;;;;7.60;2.40;;;22.90;99.90;;;;;;8298153;28;20037;-82
2023/10/09 11:39:34;;;;;;;7.65;2.05;;;22.70;99.90;;;;;;8290231;28;20033;-80
2023/10/09 11:43:51;;;;;;;9.00;2.78;;;22.60;99.90;;;;;;8283796;28;20037;-80
2023/10/09 11:48:33;;;;;;;6.10;2.58;;;22.40;99.90;;;;;;8279909;28;20124;-82
2023/10/09 11:52:35;;;;;;;8.13;2.78;;;22.30;99.90;;;;;;8299396;28;20033;-81
2023/10/09 11:56:35;;;;;;;5.90;2.80;;;22.30;99.90;;;;;;8286667;28;20026;-81
2023/10/09 12:00:45;;;;;;;13.68;2.80;;;22.20;99.90;;;;;;8288773;28;20080;-82
2023/10/09 12:04:46;;;;;;;10.07;2.53;;;22.10;99.90;;;;;;8291226;28;20044;-82
2023/10/09 12:08:49;;;;;;;11.75;3.53;;;21.80;99.90;;;;;;8295809;28;20025;-81
2023/10/09 12:12:51;;;;;;;11.63;2.85;;;21.70;99.90;;;;;;8295825;28;20093;-82
2023/10/09 12:16:52;;;;;;;9.45;2.55;;;21.60;99.90;;;;;;8275775;28;20033;-83
2023/10/09 12:20:55;;;;;;;10.00;2.92;;;21.60;99.90;;;;;;8292079;28;20022;-82
2023/10/09 12:24:57;;;;;;;7.78;2.58;;;21.50;99.90;;;;;;8291089;28;20021;-81
2023/10/09 12:28:57;;;;;;;8.98;2.72;;;21.60;99.90;;;;;;8278618;28;20025;-83
2023/10/09 12:32:58;;;;;;;11.27;2.58;;;21.70;99.90;;;;;;8281305;28;20053;-82
2023/10/09 12:37:01;;;;;;;9.57;2.60;;;21.80;99.90;;;;;;8275112;28;20029;-81
2023/10/09 12:41:08;;;;;;;6.70;2.30;;;22.10;99.90;;;;;;8278754;28;20022;-81
2023/10/09 12:45:09;;;;;;;15.43;3.75;;;22.70;99.90;;;;;;8291916;28;20037;-82
2023/10/09 12:49:10;;;;;;;5.88;2.70;;;22.90;99.90;;;;;;8273490;28;20157;-82
2023/10/09 12:53:12;;;;;;;8.50;2.80;;;22.60;99.90;;;;;;8277042;28;20022;-83
2023/10/09 12:57:13;;;;;;;5.90;2.80;;;22.70;99.90;;;;;;8274476;28;20022;-81
2023/10/09 13:01:14;;;;;;;9.60;3.17;;;22.60;99.90;;;;;;8272612;28;20410;-82
2023/10/09 13:05:25;;;;;;;10.90;3.10;;;22.40;99.90;;;;;;8277697;28;20045;-82
2023/10/09 13:09:36;;;;;;;11.30;3.10;;;22.20;99.90;;;;;;8302149;28;20025;-82
2023/10/09 13:13:42;;;;;;;13.70;2.78;;;22.10;99.90;;;;;;8295366;28;20022;-82
2023/10/09 13:17:43;;;;;;;9.60;2.88;;;21.60;99.90;;;;;;8297184;28;20558;-82
2023/10/09 13:21:43;;;;;;;7.30;2.75;;;21.10;99.90;;;;;;8301918;28;20021;-81
2023/10/09 13:25:44;;;;;;;10.07;2.78;;;20.70;99.90;;;;;;8284713;28;20018;-82
2023/10/09 13:29:45;;;;;;;11.20;2.85;;;20.50;99.90;;;;;;8285548;28;20026;-82
2023/10/09 13:33:45;;;;;;;8.30;2.97;;;20.60;99.90;;;;;;8286439;28;20040;-82
2023/10/09 13:37:55;;;;;;;10.52;3.17;;;20.60;99.90;;;;;;8303475;28;20080;-83
2023/10/09 13:41:57;;;;;;;8.98;3.25;;;20.50;99.90;;;;;;8308220;28;20022;-82
2023/10/09 13:45:58;;;;;;;10.07;2.47;;;20.40;99.90;;;;;;8294014;28;20037;-82
2023/10/09 13:50:00;;;;;;;6.35;2.75;;;20.50;99.90;;;;;;8295035;28;20036;-82
2023/10/09 13:54:00;;;;;;;9.73;2.83;;;20.70;99.90;;;;;;8291372;28;20018;-82
2023/10/09 13:58:01;;;;;;;6.97;2.65;;;20.70;99.90;;;;;;8291675;28;20053;-83
2023/10/09 14:02:08;;;;;;;7.82;2.53;;;20.70;99.90;;;;;;8307439;28;20023;-81
2023/10/09 14:06:12;;;;;;;8.43;2.40;;;20.40;99.90;;;;;;8303434;28;20723;-80
2023/10/09 14:10:25;;;;;;;9.50;2.60;;;20.40;99.90;;;;;;8293650;28;20025;-81
2023/10/09 14:14:27;;;;;;;9.60;2.65;;;20.40;99.90;;;;;;8303391;28;20446;-82
2023/10/09 14:18:29;;;;;;;8.45;3.05;;;20.40;99.90;;;;;;8291289;28;20109;-82
2023/10/09 14:22:30;;;;;;;8.70;3.13;;;20.80;99.90;;;;;;8363336;22;20528;-82
2023/10/09 14:26:34;;;;;;;10.05;2.80;;;21.00;99.90;;;;;;8374650;28;20017;-82
2023/10/09 14:30:44;;;;;;;9.57;2.72;;;21.20;99.90;;;;;;8360735;28;20155;-82
2023/10/09 14:34:51;;;;;;;;;;;21.20;99.90;;;;;;8352900;28;20026;-82
2023/10/09 14:38:52;;;;;;;7.50;2.78;;;21.30;99.90;;;;;;8370402;28;19970;-82
2023/10/09 14:42:53;;;;;;;8.02;2.13;;;21.20;99.90;;;;;;8338456;28;20709;-82
2023/10/09 14:46:55;;;;;;;5.15;2.40;;;21.00;99.90;;;;;;8341219;28;20025;-82
2023/10/09 14:51:04;;;;;;;8.65;2.17;;;21.00;99.90;;;;;;8349448;28;20075;-82
2023/10/09 14:55:09;;;;;;;9.23;2.60;;;20.80;99.90;;;;;;8377226;28;20021;-82
2023/10/09 14:59:11;;;;;;;6.40;2.35;;;20.70;99.90;;;;;;8355183;28;20032;-82
2023/10/09 15:03:14;;;;;;;8.32;2.75;;;20.80;99.90;;;;;;8359012;28;20091;-82
2023/10/09 15:07:15;;;;;;;5.50;2.65;;;20.90;99.90;;;;;;8356147;28;20032;-82
2023/10/09 15:11:15;;;;;;;9.88;2.67;;;21.10;99.90;;;;;;8352136;28;20029;-83
2023/10/09 15:15:16;;;;;;;9.43;2.92;;;20.90;99.90;;;;;;8354185;28;20032;-83
2023/10/09 15:19:17;;;;;;;9.38;3.22;;;20.70;99.90;;;;;;8355303;28;20138;-82
2023/10/09 15:23:20;;;;;;;9.05;2.83;;;20.60;99.90;;;;;;8350844;28;20048;-82
2023/10/09 15:27:21;;;;;;;10.75;3.22;;;20.50;99.90;;;;;;8354489;28;20029;-82
2023/10/09 15:31:21;;;;;;;8.40;3.22;;;20.40;99.90;;;;;;8354652;28;20035;-83
2023/10/09 15:35:23;;;;;;;14.45;3.50;;;20.30;99.90;;;;;;8372267;28;20404;-82
2023/10/09 15:39:23;;;;;;;11.70;2.95;;;20.20;99.90;;;;;;8358659;28;20104;-82
2023/10/09 15:43:25;;;;;;;14.65;3.08;;;20.00;99.90;;;;;;8345939;28;20039;-82
2023/10/09 15:47:25;;;;;;;7.25;3.10;;;20.00;99.90;;;;;;8360697;28;20444;-81
2023/10/09 15:51:27;;;;;;;9.70;3.08;;;19.90;99.90;;;;;;8367582;28;20122;-82
2023/10/09 15:55:28;;;;;;;10.88;2.55;;;19.80;99.90;;;;;;8372747;28;20021;-82
2023/10/09 15:59:32;;;;;;;7.97;2.70;;;19.60;99.90;;;;;;8357465;28;20039;-82
2023/10/09 16:03:33;;;;;;;13.95;3.38;;;19.50;99.90;;;;;;8371876;28;20051;-82
2023/10/09 16:07:33;;;;;;;10.75;3.47;;;19.50;99.90;;;;;;8362974;28;20021;-82
2023/10/09 16:11:34;;;;;;;9.27;3.17;;;19.20;99.90;;;;;;8358270;28;20039;-81
2023/10/09 16:15:41;;;;;;;10.73;2.85;;;19.00;99.90;;;;;;8360044;28;20612;-82
2023/10/09 16:19:41;;;;;;;11.43;2.85;;;18.80;99.90;;;;;;8358278;28;20025;-81
2023/10/09 16:23:42;;;;;;;12.23;3.47;;;18.70;99.90;;;;;;8353596;28;20029;-81
2023/10/09 16:27:47;;;;;;;7.60;2.65;;;18.60;99.90;;;;;;8351843;28;20052;-82
2023/10/09 16:31:48;;;;;;;13.32;3.65;;;18.50;99.90;;;;;;8364783;28;20120;-83
2023/10/09 16:35:51;;;;;;;10.00;2.67;;;18.50;99.90;;;;;;8351087;28;20055;-83
2023/10/09 16:39:53;;;;;;;8.52;2.50;;;18.40;99.90;;;;;;8353777;28;20033;-83
2023/10/09 16:43:56;;;;;;;13.38;2.58;;;18.40;99.90;;;;;;8344527;28;20036;-83
2023/10/09 16:47:58;;;;;;;10.18;2.78;;;18.10;99.90;;;;;;8363425;28;20052;-82
2023/10/09 16:51:59;;;;;;;7.13;2.53;;;18.00;99.90;;;;;;8351171;28;20041;-83
2023/10/09 16:56:00;;;;;;;6.55;2.47;;;18.20;99.90;;;;;;8342894;28;20052;-82
2023/10/09 17:00:02;;;;;;;7.88;2.38;;;18.20;99.90;;;;;;8354601;28;20055;-83
2023/10/09 17:04:03;;;;;;;7.80;2.67;;;18.10;99.90;;;;;;8348558;28;20029;-83
2023/10/09 17:08:09;;;;;;;8.63;2.63;;;18.10;99.90;;;;;;8348741;28;20029;-83
2023/10/09 17:12:12;;;;;;;5.43;2.70;;;17.80;99.90;;;;;;8350173;28;20052;-83
2023/10/09 17:16:21;;;;;;;10.75;2.95;;;17.70;99.90;;;;;;8352817;28;20029;-84
2023/10/09 17:20:22;;;;;;;8.23;3.00;;;17.60;99.90;;;;;;8371842;28;20552;-84
2023/10/09 17:24:22;;;;;;;7.00;2.88;;;17.60;99.90;;;;;;8374028;28;20025;-82
2023/10/09 17:28:24;;;;;;;10.85;3.47;;;17.20;99.90;;;;;;8369410;28;20029;-83
2023/10/09 17:32:25;;;;;;;9.23;3.22;;;16.90;99.90;;;;;;8359726;28;20695;-83
2023/10/09 17:36:26;;;;;;;13.15;3.40;;;16.50;99.90;;;;;;8353467;28;20028;-83
2023/10/09 17:40:27;;;;;;;9.65;3.50;;;16.10;99.90;;;;;;8361051;28;20025;-82
2023/10/09 17:44:28;;;;;;;13.82;2.88;;;15.80;99.90;;;;;;8353423;28;20021;-83
2023/10/09 17:48:28;;;;;;;5.43;2.80;;;15.60;99.90;;;;;;8357688;28;20039;-83
2023/10/09 17:52:29;;;;;;;10.52;3.35;;;15.50;99.90;;;;;;8359902;28;20028;-83
2023/10/09 17:56:30;;;;;;;8.65;3.25;;;15.30;99.90;;;;;;8350438;28;20025;-82
2023/10/09 18:00:34;;;;;;;12.68;3.63;;;15.20;99.90;;;;;;8345584;28;20036;-83
2023/10/09 18:04:35;;;;;;;11.88;3.63;;;15.10;99.90;;;;;;8362369;28;20041;-83
2023/10/09 18:08:36;;;;;;;10.38;3.03;;;15.10;99.90;;;;;;8360893;28;20021;-83
2023/10/09 18:12:38;;;;;;;10.95;3.00;;;15.00;99.90;;;;;;8371417;28;20021;-83
2023/10/09 18:16:41;;;;;;;7.93;3.05;;;15.00;99.90;;;;;;8363357;28;20494;-83
2023/10/09 18:20:42;;;;;;;9.25;3.63;;;15.00;99.90;;;;;;8349082;28;20120;-83
2023/10/09 18:24:43;;;;;;;6.15;3.17;;;15.00;99.90;;;;;;8352349;28;20024;-83
2023/10/09 18:28:44;;;;;;;10.35;3.63;;;15.20;99.90;;;;;;8369545;28;20405;-83
2023/10/09 18:32:45;;;;;;;9.30;3.38;;;15.10;99.90;;;;;;8359727;28;20023;-83
2023/10/09 18:36:45;;;;;;;6.15;3.25;;;15.20;99.90;;;;;;8352996;28;20680;-83
2023/10/09 18:40:49;;;;;;;6.03;3.15;;;15.00;99.90;;;;;;8363010;28;20021;-84
2023/10/09 18:44:49;;;;;;;8.05;3.10;;;14.90;99.90;;;;;;8361940;28;20039;-83
2023/10/09 18:48:50;;;;;;;12.68;4.05;;;14.80;99.90;;;;;;8364838;28;20029;-83
2023/10/09 18:52:51;;;;;;;12.50;3.67;;;14.70;99.90;;;;;;8358672;28;20040;-83
2023/10/09 18:56:52;;;;;;;7.93;3.00;;;14.60;99.90;;;;;;8342290;28;20028;-83
2023/10/09 19:01:01;;;;;;;11.38;3.33;;;14.40;99.90;;;;;;8366773;28;20427;-83
2023/10/09 19:05:07;;;;;;;10.05;3.30;;;14.20;99.90;;;;;;8347525;28;20043;-83
2023/10/09 19:09:08;;;;;;;7.70;3.45;;;13.90;99.90;;;;;;8355406;28;20020;-83
2023/10/09 19:13:10;;;;;;;8.07;2.95;;;13.90;99.90;;;;;;8383157;28;20251;-83
2023/10/09 19:17:11;;;;;;;16.13;3.65;;;13.70;99.90;;;;;;8370539;28;20021;-83
2023/10/09 19:21:13;;;;;;;8.32;3.10;;;13.40;99.90;;;;;;8368309;28;20031;-83
2023/10/09 19:25:16;;;;;;;7.28;3.28;;;13.20;99.90;;;;;;8354952;28;20381;-83
2023/10/09 19:29:17;;;;;;;9.85;3.35;;;13.30;99.90;;;;;;8355928;28;20021;-83
2023/10/09 19:33:17;;;;;;;7.78;3.25;;;13.30;99.90;;;;;;8352280;28;20025;-84
2023/10/09 19:37:19;;;;;;;10.45;3.50;;;13.30;99.90;;;;;;8349815;28;20489;-83
2023/10/09 19:41:23;;;;;;;9.23;4.07;;;13.20;99.90;;;;;;8354141;28;20037;-85
2023/10/09 19:45:23;;;;;;;6.70;3.65;;;13.20;99.90;;;;;;8356059;28;20029;-84
2023/10/09 19:49:25;;;;;;;10.23;4.22;;;13.30;99.90;;;;;;8363891;28;20504;-84
2023/10/09 19:53:26;;;;;;;11.18;4.82;;;13.30;99.90;;;;;;8363809;28;20021;-84
2023/10/09 19:57:31;;;;;;;15.73;6.05;;;13.40;99.90;;;;;;8344986;28;20032;-84
2023/10/09 20:01:31;;;;;;;9.15;4.40;;;13.40;99.90;;;;;;8352544;28;20029;-83
2023/10/09 20:05:32;;;;;;;12.20;5.05;;;13.40;99.90;;;;;;8344895;28;20043;-84
2023/10/09 20:09:35;;;;;;;10.48;4.43;;;13.40;99.90;;;;;;8344442;28;20493;-83
2023/10/09 20:13:36;;;;;;;14.65;5.10;;;13.40;99.90;;;;;;8344894;28;20174;-83
2023/10/09 20:17:36;;;;;;;11.70;4.40;;;13.50;99.90;;;;;;8344439;28;20025;-84
2023/10/09 20:21:37;;;;;;;14.13;4.78;;;13.50;99.90;;;;;;8356627;28;20416;-83
2023/10/09 20:25:38;;;;;;;10.77;4.40;;;13.50;99.90;;;;;;8356342;28;20706;-84
2023/10/09 20:29:41;;;;;;;7.43;4.07;;;13.50;99.90;;;;;;8359884;28;20028;-83
2023/10/09 20:33:43;;;;;;;8.48;4.63;;;13.50;99.90;;;;;;8340269;28;20439;-83
2023/10/09 20:37:44;;;;;;;10.02;4.80;;;13.40;99.90;;;;;;8357528;28;20013;-84
2023/10/09 20:41:45;;;;;;;8.15;5.22;;;13.30;99.90;;;;;;8360545;28;20108;-84
2023/10/09 20:45:46;;;;;;;11.00;5.32;;;13.30;99.90;;;;;;8346004;28;20032;-84
2023/10/09 20:49:47;;;;;;;13.00;5.32;;;13.30;99.90;;;;;;8352461;28;20021;-83
2023/10/09 20:53:47;;;;;;;18.40;6.75;;;13.20;99.90;;;;;;8352268;28;20025;-84
2023/10/09 20:57:49;;;;;;;9.45;4.88;;;13.40;99.90;;;;;;8349758;28;20023;-84
2023/10/09 21:01:50;;;;;;;8.15;4.68;;;13.40;99.90;;;;;;8363164;28;20035;-83
2023/10/09 21:05:55;;;;;;;10.95;5.03;;;13.30;99.90;;;;;;8352364;28;20021;-84
2023/10/09 21:09:57;;;;;;;12.23;4.22;;;13.20;99.90;;;;;;8353430;28;20491;-84
2023/10/09 21:13:57;;;;;;;11.00;5.15;;;13.20;99.90;;;;;;8356974;28;20018;-83
2023/10/09 21:17:58;;;;;;;9.02;4.40;;;13.20;99.90;;;;;;8359318;28;20166;-84
2023/10/09 21:21:59;;;;;;;13.15;4.80;;;13.10;99.90;;;;;;8379559;28;20087;-84
2023/10/09 21:25:59;;;;;;;10.38;4.53;;;13.00;99.90;;;;;;8358277;28;20056;-84
2023/10/09 21:30:01;;;;;;;6.85;4.20;;;13.00;99.90;;;;;;8364926;28;20025;-84
2023/10/09 21:34:04;;;;;;;11.30;4.45;;;12.90;99.90;;;;;;8349264;28;20028;-84
2023/10/09 21:38:06;;;;;;;9.27;3.72;;;12.80;99.90;;;;;;8347204;28;20021;-83
2023/10/09 21:42:07;;;;;;;7.68;3.92;;;12.70;99.90;;;;;;8364475;28;20032;-84
2023/10/09 21:46:09;;;;;;;7.78;4.55;;;12.50;99.90;;;;;;8365118;28;20112;-84
2023/10/09 21:50:10;;;;;;;8.77;4.22;;;12.50;99.90;;;;;;8346534;28;20036;-83
2023/10/09 21:54:10;;;;;;;11.35;4.88;;;12.40;99.90;;;;;;8348243;28;20021;-83
2023/10/09 21:58:11;;;;;;;9.70;4.93;;;12.30;99.90;;;;;;8352219;28;20025;-84
2023/10/09 22:02:13;;;;;;;9.20;4.63;;;12.30;99.90;;;;;;8367790;28;20029;-84
2023/10/09 22:06:15;;;;;;;10.30;4.80;;;12.30;99.90;;;;;;8363818;28;20028;-83
2023/10/09 22:10:15;;;;;;;12.80;3.90;;;12.30;99.90;;;;;;8363271;28;20025;-84
2023/10/09 22:14:16;;;;;;;9.70;4.57;;;12.20;99.90;;;;;;8367209;28;20032;-84
2023/10/09 22:18:23;;;;;;;9.35;4.47;;;12.10;99.90;;;;;;8361330;28;20025;-83
2023/10/09 22:22:25;;;;;;;11.05;4.25;;;12.00;99.90;;;;;;8352938;28;20060;-83
2023/10/09 22:26:25;;;;;;;11.63;4.25;;;11.80;99.90;;;;;;8370639;28;20028;-83
2023/10/09 22:30:29;;;;;;;13.82;4.60;;;11.80;99.90;;;;;;8377081;28;20507;-83
2023/10/09 22:34:30;;;;;;;11.13;4.63;;;11.80;99.90;;;;;;8370669;28;20025;-83
2023/10/09 22:38:31;;;;;;;10.32;4.38;;;11.80;99.90;;;;;;8351060;28;20024;-83
2023/10/09 22:42:32;;;;;;;10.20;4.00;;;11.70;99.90;;;;;;8353547;28;20021;-83
2023/10/09 22:46:34;;;;;;;11.27;4.38;;;11.60;99.90;;;;;;8360845;28;20598;-83